Tropical Cyclones
[Index]
Main Index Home Page Stock Weather Photos Extreme Storms Discussion Storm News and Storm Chasing Reports Tropical Cyclones / Hurricanes / Typhoons Weather Data and Links Wild Fires / Bushfires Weather Observation Techniques Weather Picture Catalogue Tornado Pictures and Reports Stock Video Footage and DVDs for sale
Season 2005-2006 Tropical Cyclone GLENDA Track Map
Season 2005-2006 Summaries: [BoM-AU] [JTWC-AU] [JTWC-SIO] [JTWC-SPAC] [JTWC-SH]
<<- Previous TC | BoM 2005-2006 Season | Next TC ->>

click for intensity scale information  Lat/long Grid: Show Hide

 Date Labels: Show Hide

Bureau of Meteorology Tropical Cyclone Data

Name: GLENDA
Number: 897 / 200506_14

22 Mar 2006 00:00 UTC to 31 Mar 2006 06:00 UTC

    date/time    lat    long    hPa   cat  kts
2006-03-22 00   14.0   128.5   1002         20          
2006-03-22 06   14.0   128.3   1000         25          
2006-03-22 12   13.9   128.4   1000         25          
2006-03-22 18   14.0   128.3   1000         25          
2006-03-23 00   14.0   128.2   1000         25          
2006-03-23 06   14.2   128.4    998         25          
2006-03-23 12   14.3   128.5    998         25          
2006-03-23 18   14.6   128.7    998         25          
2006-03-24 00   14.9   128.9    998         25          
2006-03-24 06   14.9   128.8    996         25          
2006-03-24 12   15.1   128.5    996         25          
2006-03-24 18   14.8   128.4    996         25          
2006-03-25 00   14.8   127.8    996         25          
2006-03-25 06   14.8   127.6    996         25          
2006-03-25 12   14.7   127.4    996         25          
2006-03-25 18   14.9   126.6    996         25          
2006-03-26 00   14.9   125.6    996         25          
2006-03-26 06   14.9   125.3    996         25          
2006-03-26 12   14.7   125.1    996         25          
2006-03-26 18   14.6   124.8    994    1    35          
2006-03-27 00   14.9   124.4    990    1    40          
2006-03-27 03   15.1   123.9    984    2    45          
2006-03-27 06   15.2   123.5    980    2    50          
2006-03-27 09   15.4   123.2    972    2    55          
2006-03-27 12   15.5   123.0    970    3    65          
2006-03-27 15   15.5   122.5    962    3    70          
2006-03-27 18   15.5   122.3    950    4    80          
2006-03-27 21   15.5   122.0    938    4    90          
2006-03-28 00   15.6   121.8    924    5    100          
2006-03-28 03   15.8   121.5    918    5    105          
2006-03-28 06   16.0   121.1    910    5    110          
2006-03-28 09   16.3   120.8    910    5    110          
2006-03-28 12   16.7   120.4    910    5    110          
2006-03-28 15   16.8   119.8    910    5    110          
2006-03-28 18   17.0   119.4    910    5    110          
2006-03-28 21   17.2   119.1    910    5    110          
2006-03-29 00   17.4   118.7    918    5    105          
2006-03-29 03   17.5   118.2    918    5    105          
2006-03-29 06   17.7   117.8    918    5    105          
2006-03-29 09   17.9   117.6    918    5    105          
2006-03-29 12   18.3   117.4    918    5    105          
2006-03-29 15   18.6   117.0    924    5    100          
2006-03-29 18   18.8   116.7    924    5    100          
2006-03-29 21   19.1   116.5    924    5    100          
2006-03-30 00   19.6   116.4    924    5    100          
2006-03-30 03   20.1   116.2    924    5    100          
2006-03-30 06   20.7   115.8    932    4    95          
2006-03-30 09   21.3   115.5    950    4    80          
2006-03-30 12   21.5   115.3    962    3    70          
2006-03-30 15   21.9   115.1    970    3    60          
2006-03-30 18   22.2   115.1    980    2    50          
2006-03-30 21   22.7   115.1    990    1    40          
2006-03-31 00   23.3   115.0    994    1    30          
2006-03-31 03   24.0   114.9    994    1    30          
2006-03-31 06   24.6   114.8    996         25          
Winds are 10-min average.

Tropical cyclone tracks developed by Michael Bath using data from the Bureau of Meteorology and Google Maps.


[Australian Severe Weather index] [Copyright Notice] [Email Contacts] [Search This Site] [Privacy Policy]
Document: tropical_cyclone_glenda.htm Updated: 29 June 2017